createdAt,value
2019-05-11T00:02:29.779Z,17.90
2019-05-11T00:05:01.085Z,17.80
2019-05-11T00:07:32.467Z,16.80
2019-05-11T00:10:03.921Z,16.83
2019-05-11T00:12:35.246Z,17.03
2019-05-11T00:15:06.991Z,17.67
2019-05-11T00:17:38.303Z,17.57
2019-05-11T00:20:09.999Z,16.80
2019-05-11T00:22:41.352Z,17.00
2019-05-11T00:25:12.865Z,15.93
2019-05-11T00:27:44.171Z,17.07
2019-05-11T00:30:15.913Z,16.50
2019-05-11T00:32:47.257Z,16.43
2019-05-11T00:35:18.535Z,16.30
2019-05-11T00:37:49.835Z,17.60
2019-05-11T00:40:21.149Z,16.60
2019-05-11T00:42:52.485Z,16.67
2019-05-11T00:45:23.731Z,16.43
2019-05-11T00:47:55.061Z,16.33
2019-05-11T00:50:38.543Z,17.63
2019-05-11T00:52:59.359Z,18.47
2019-05-11T00:55:30.651Z,16.73
2019-05-11T00:58:01.924Z,17.47
2019-05-11T01:00:33.225Z,17.13
2019-05-11T01:03:04.503Z,17.00
2019-05-11T01:05:35.797Z,16.73
2019-05-11T01:08:07.106Z,16.47
2019-05-11T01:10:42.698Z,16.20
2019-05-11T01:13:11.341Z,17.23
2019-05-11T01:15:42.625Z,15.47
2019-05-11T01:18:14.137Z,15.17
2019-05-11T01:20:45.697Z,16.47
2019-05-11T01:23:16.955Z,16.93
2019-05-11T01:25:48.238Z,16.73
2019-05-11T01:28:19.604Z,17.47
2019-05-11T01:30:50.919Z,16.73
2019-05-11T01:33:22.236Z,17.93
2019-05-11T01:35:53.557Z,18.27
2019-05-11T01:38:24.863Z,18.13
2019-05-11T01:40:58.897Z,19.07
2019-05-11T01:43:29.162Z,18.13
2019-05-11T01:46:00.437Z,18.40
2019-05-11T01:48:31.707Z,18.67
2019-05-11T01:51:03.003Z,19.40
2019-05-11T01:53:34.336Z,18.93
2019-05-11T01:56:05.672Z,18.77
2019-05-11T01:58:36.975Z,19.93
2019-05-11T02:01:08.662Z,19.67
2019-05-11T02:03:40.022Z,19.87
2019-05-11T02:06:11.276Z,23.57
2019-05-11T02:08:42.556Z,18.60
2019-05-11T02:11:16.194Z,20.10
2019-05-11T02:13:46.814Z,19.20
2019-05-11T02:16:18.101Z,19.67
2019-05-11T02:18:49.431Z,21.83
2019-05-11T02:21:20.755Z,19.70
2019-05-11T02:23:52.018Z,18.93
2019-05-11T02:26:23.310Z,19.90
2019-05-11T02:28:54.593Z,19.27
2019-05-11T02:31:25.905Z,19.30
2019-05-11T02:33:57.253Z,20.10
2019-05-11T02:36:28.517Z,21.40
2019-05-11T02:38:59.833Z,19.87
2019-05-11T02:41:36.323Z,20.60
2019-05-11T02:44:04.321Z,19.87
2019-05-11T02:46:36.054Z,18.77
2019-05-11T02:49:07.397Z,19.20
2019-05-11T02:51:40.391Z,17.73
2019-05-11T02:54:13.166Z,20.37
2019-05-11T02:56:44.481Z,19.73
2019-05-11T02:59:15.800Z,19.07
2019-05-11T03:01:47.088Z,20.07
2019-05-11T03:04:18.408Z,21.23
2019-05-11T03:06:49.668Z,19.30
2019-05-11T03:09:20.971Z,19.60
2019-05-11T03:11:55.378Z,18.70
2019-05-11T03:14:25.260Z,18.87
2019-05-11T03:17:12.386Z,21.53
2019-05-11T03:19:43.707Z,22.40
2019-05-11T03:22:15.222Z,20.40
2019-05-11T03:24:46.521Z,21.83
2019-05-11T03:27:17.751Z,22.00
2019-05-11T03:29:49.103Z,23.37
2019-05-11T03:32:20.368Z,22.53
2019-05-11T03:34:51.711Z,22.83
2019-05-11T03:37:22.991Z,23.67
2019-05-11T03:39:54.246Z,23.27
2019-05-11T03:42:25.508Z,26.30
2019-05-11T03:44:56.787Z,26.50
2019-05-11T03:47:28.113Z,24.87
2019-05-11T03:49:59.380Z,24.93
2019-05-11T03:52:30.707Z,25.83
2019-05-11T03:55:01.985Z,25.93
2019-05-11T03:57:33.277Z,26.57
2019-05-11T04:00:04.741Z,26.13
2019-05-11T04:02:36.016Z,27.83
2019-05-11T04:05:07.633Z,28.77
2019-05-11T04:07:38.907Z,27.03
2019-05-11T04:10:10.365Z,30.20
2019-05-11T04:12:41.616Z,27.67
2019-05-11T04:15:13.292Z,27.57
2019-05-11T04:17:44.565Z,31.10
2019-05-11T04:20:15.910Z,30.30
2019-05-11T04:22:47.190Z,31.07
2019-05-11T04:25:18.466Z,29.60
2019-05-11T04:27:49.763Z,29.17
2019-05-11T04:30:21.185Z,29.20
2019-05-11T04:32:52.462Z,29.43
2019-05-11T04:35:23.771Z,31.07
2019-05-11T04:37:55.080Z,28.90
2019-05-11T04:40:26.301Z,30.60
2019-05-11T04:42:57.611Z,31.83
2019-05-11T04:45:28.887Z,33.23
2019-05-11T04:48:00.204Z,34.30
2019-05-11T04:50:31.499Z,32.73
2019-05-11T04:53:02.782Z,33.77
2019-05-11T04:55:34.084Z,33.03
2019-05-11T04:58:05.367Z,32.00
2019-05-11T05:00:36.615Z,34.20
2019-05-11T05:03:07.935Z,31.30
2019-05-11T05:05:39.224Z,32.83
2019-05-11T05:08:10.525Z,34.63
2019-05-11T05:10:41.811Z,33.10
2019-05-11T05:13:13.101Z,32.60
2019-05-11T05:15:44.373Z,31.30
2019-05-11T05:18:15.636Z,33.50
2019-05-11T05:20:46.948Z,34.50
2019-05-11T05:23:18.257Z,34.30
2019-05-11T05:25:49.505Z,35.27
2019-05-11T05:28:20.815Z,33.97
2019-05-11T05:30:52.128Z,36.40
2019-05-11T05:33:23.412Z,34.70
2019-05-11T05:35:54.709Z,35.23
2019-05-11T05:38:26.021Z,36.80
2019-05-11T05:40:57.353Z,36.80
2019-05-11T05:43:28.778Z,39.93
2019-05-11T05:46:00.049Z,41.13
2019-05-11T05:48:31.387Z,41.33
2019-05-11T05:51:02.747Z,39.20
2019-05-11T05:53:34.027Z,40.77
2019-05-11T05:56:05.371Z,41.93
2019-05-11T05:58:36.793Z,39.43
2019-05-11T06:01:10.293Z,36.03
2019-05-11T06:03:41.076Z,35.63
2019-05-11T06:06:12.404Z,37.70
2019-05-11T06:08:43.747Z,36.83
2019-05-11T06:11:15.087Z,37.03
2019-05-11T06:13:46.467Z,37.00
2019-05-11T06:16:17.976Z,38.40
2019-05-11T06:18:49.462Z,37.23
2019-05-11T06:21:20.769Z,40.93
2019-05-11T06:23:52.074Z,39.07
2019-05-11T06:26:23.438Z,41.40
2019-05-11T06:28:54.714Z,44.30
2019-05-11T06:31:26.196Z,39.77
2019-05-11T06:33:57.535Z,41.57
2019-05-11T06:36:28.870Z,43.07
2019-05-11T06:39:00.162Z,43.90
2019-05-11T06:41:31.446Z,40.37
2019-05-11T06:44:02.739Z,43.33
2019-05-11T06:46:35.100Z,42.70
2019-05-11T06:49:06.601Z,44.53
2019-05-11T06:51:40.431Z,45.53
2019-05-11T06:54:10.911Z,44.60
2019-05-11T06:56:42.220Z,45.20
2019-05-11T06:59:13.524Z,46.70
2019-05-11T07:01:44.769Z,49.37
2019-05-11T07:04:16.104Z,48.67
2019-05-11T07:06:47.404Z,52.43
2019-05-11T07:09:18.720Z,48.40
2019-05-11T07:11:50.043Z,49.57
2019-05-11T07:14:21.631Z,47.17
2019-05-11T07:16:52.985Z,50.17
2019-05-11T07:19:24.344Z,50.60
2019-05-11T07:21:55.685Z,45.20
2019-05-11T07:24:26.986Z,47.50
2019-05-11T07:26:58.299Z,44.63
2019-05-11T07:29:29.628Z,45.70
2019-05-11T07:32:10.144Z,44.83
2019-05-11T07:34:33.933Z,41.57
2019-05-11T07:37:05.258Z,41.30
2019-05-11T07:39:38.299Z,39.53
2019-05-11T07:42:09.742Z,37.87
2019-05-11T07:44:41.881Z,40.57
2019-05-11T07:47:13.301Z,39.83
2019-05-11T07:49:44.729Z,38.93
2019-05-11T07:52:18.077Z,41.47
2019-05-11T07:54:52.850Z,36.80
2019-05-11T07:57:22.101Z,33.07
2019-05-11T07:59:53.364Z,32.30
2019-05-11T08:02:24.736Z,31.40
2019-05-11T08:04:58.517Z,28.87
2019-05-11T08:07:28.946Z,28.70
2019-05-11T08:10:00.239Z,28.90
2019-05-11T08:12:31.540Z,30.23
2019-05-11T08:15:09.084Z,26.93
2019-05-11T08:17:37.952Z,28.57
2019-05-11T08:20:09.183Z,27.77
2019-05-11T08:22:40.511Z,30.80
2019-05-11T08:25:11.826Z,28.03
2019-05-11T08:27:43.193Z,26.70
2019-05-11T08:30:15.202Z,26.50
2019-05-11T08:32:49.095Z,25.10
2019-05-11T08:35:19.459Z,35.43
2019-05-11T08:37:50.777Z,25.00
2019-05-11T08:40:22.405Z,24.47
2019-05-11T08:42:53.700Z,23.43
2019-05-11T08:45:25.046Z,24.73
2019-05-11T08:47:57.906Z,23.97
2019-05-11T08:50:29.462Z,24.23
2019-05-11T08:53:00.697Z,23.60
2019-05-11T08:55:32.030Z,24.33
2019-05-11T08:58:03.252Z,24.40
2019-05-11T09:00:34.584Z,24.13
2019-05-11T09:03:08.368Z,27.40
2019-05-11T09:05:38.974Z,23.10
2019-05-11T09:08:10.342Z,23.77
2019-05-11T09:10:41.658Z,21.73
2019-05-11T09:13:13.036Z,19.40
2019-05-11T09:15:44.375Z,19.03
2019-05-11T09:18:15.693Z,19.90
2019-05-11T09:20:48.701Z,19.33
2019-05-11T09:23:33.518Z,19.93
2019-05-11T09:25:53.019Z,18.33
2019-05-11T09:28:24.295Z,18.57
2019-05-11T09:30:57.800Z,18.40
2019-05-11T09:33:28.625Z,17.57
2019-05-11T09:35:59.936Z,16.90
2019-05-11T09:38:31.267Z,19.07
2019-05-11T09:41:02.527Z,16.27
2019-05-11T09:43:33.815Z,16.33
2019-05-11T09:46:05.091Z,16.43
2019-05-11T09:48:37.859Z,17.07
2019-05-11T09:51:09.323Z,15.47
2019-05-11T09:53:40.692Z,15.57
2019-05-11T09:56:12.048Z,17.37
2019-05-11T09:58:43.429Z,13.73
2019-05-11T10:01:14.770Z,14.00
2019-05-11T10:03:48.222Z,14.40
2019-05-11T10:06:19.304Z,15.77
2019-05-11T10:08:50.625Z,15.67
2019-05-11T10:11:21.947Z,13.77
2019-05-11T10:13:53.287Z,13.27
2019-05-11T10:16:24.642Z,14.73
2019-05-11T10:18:55.915Z,13.17
2019-05-11T10:21:27.935Z,15.00
2019-05-11T10:23:59.289Z,14.13
2019-05-11T10:26:30.598Z,13.03
2019-05-11T10:29:01.895Z,12.80
2019-05-11T10:31:34.671Z,14.47
2019-05-11T10:34:08.460Z,14.57
2019-05-11T10:36:38.993Z,12.43
2019-05-11T10:39:10.828Z,12.30
2019-05-11T10:41:42.110Z,12.70
2019-05-11T10:44:13.401Z,11.70
2019-05-11T10:46:44.716Z,13.53
2019-05-11T10:49:18.303Z,12.97
2019-05-11T10:51:49.051Z,11.90
2019-05-11T10:54:20.366Z,12.13
2019-05-11T10:56:51.737Z,11.87
2019-05-11T10:59:23.035Z,11.63
2019-05-11T11:01:54.350Z,13.93
2019-05-11T11:04:25.610Z,15.57
2019-05-11T11:06:59.061Z,14.07
2019-05-11T11:09:29.979Z,12.83
2019-05-11T11:12:01.312Z,12.63
2019-05-11T11:14:32.598Z,14.47
2019-05-11T11:17:03.901Z,14.27
2019-05-11T11:19:35.197Z,13.97
2019-05-11T11:22:32.396Z,12.50
2019-05-11T11:24:39.554Z,12.80
2019-05-11T11:27:10.985Z,13.10
2019-05-11T11:29:42.548Z,14.77
2019-05-11T11:32:13.827Z,11.40
2019-05-11T11:34:45.127Z,11.07
2019-05-11T11:37:17.573Z,9.90
2019-05-11T11:39:49.008Z,11.23
2019-05-11T11:42:20.275Z,9.27
2019-05-11T11:44:51.619Z,10.30
2019-05-11T11:47:22.917Z,9.90
2019-05-11T11:49:54.199Z,10.03
2019-05-11T11:52:27.626Z,11.90
2019-05-11T11:54:58.760Z,14.60
2019-05-11T11:57:30.092Z,13.07
2019-05-11T12:00:01.406Z,13.10
2019-05-11T12:02:32.654Z,12.13
2019-05-11T12:05:03.992Z,12.00
2019-05-11T12:07:35.312Z,10.93
2019-05-11T12:10:07.766Z,10.40
2019-05-11T12:12:39.261Z,10.20
2019-05-11T12:15:10.757Z,10.03
2019-05-11T12:17:42.062Z,12.00
2019-05-11T12:20:13.576Z,10.07
2019-05-11T12:22:44.830Z,12.90
2019-05-11T12:25:18.326Z,11.17
2019-05-11T12:27:49.298Z,18.00
2019-05-11T12:30:20.732Z,11.30
2019-05-11T12:32:52.005Z,12.03
2019-05-11T12:35:23.343Z,9.27
2019-05-11T12:37:54.597Z,8.83
2019-05-11T12:40:28.162Z,7.63
2019-05-11T12:42:59.182Z,10.87
2019-05-11T12:45:30.558Z,6.80
2019-05-11T12:48:01.820Z,9.60
2019-05-11T12:50:33.143Z,6.57
2019-05-11T12:53:04.419Z,7.27
2019-05-11T12:55:37.767Z,5.13
2019-05-11T12:58:08.790Z,6.07
2019-05-11T13:00:40.075Z,7.73
2019-05-11T13:03:11.386Z,7.27
2019-05-11T13:05:42.741Z,5.73
2019-05-11T13:08:13.982Z,6.70
2019-05-11T13:10:47.726Z,5.73
2019-05-11T13:13:18.530Z,7.57
2019-05-11T13:15:49.876Z,10.10
2019-05-11T13:18:21.193Z,6.63
2019-05-11T13:20:52.562Z,5.80
2019-05-11T13:23:23.896Z,6.93
2019-05-11T13:25:55.249Z,8.83
2019-05-11T13:28:28.387Z,6.03
2019-05-11T13:30:59.523Z,6.60
2019-05-11T13:33:30.875Z,8.00
2019-05-11T13:36:02.168Z,5.87
2019-05-11T13:38:33.452Z,8.77
2019-05-11T13:41:04.771Z,7.20
2019-05-11T13:43:38.424Z,6.93
2019-05-11T13:46:09.052Z,5.40
2019-05-11T13:48:40.366Z,5.13
2019-05-11T13:51:11.695Z,8.60
2019-05-11T13:53:42.967Z,6.43
2019-05-11T13:56:14.274Z,5.77
2019-05-11T13:58:45.615Z,6.60
2019-05-11T14:01:18.419Z,5.53
2019-05-11T14:03:50.039Z,5.90
2019-05-11T14:06:21.380Z,6.27
2019-05-11T14:08:52.689Z,5.77
2019-05-11T14:11:24.073Z,6.87
2019-05-11T14:13:55.379Z,7.63
2019-05-11T14:16:27.589Z,6.77
2019-05-11T14:18:59.167Z,4.73
2019-05-11T14:21:30.477Z,5.20
2019-05-11T14:24:01.754Z,5.90
2019-05-11T14:26:33.054Z,5.83
2019-05-11T14:29:04.388Z,5.67
2019-05-11T14:31:35.674Z,6.90
2019-05-11T14:34:08.879Z,7.87
2019-05-11T14:36:40.052Z,5.23
2019-05-11T14:39:11.376Z,6.40
2019-05-11T14:41:42.754Z,4.30
2019-05-11T14:44:14.120Z,4.00
2019-05-11T14:46:47.582Z,7.13
2019-05-11T14:49:18.597Z,7.63
2019-05-11T14:51:49.914Z,7.80
2019-05-11T14:54:21.213Z,6.53
2019-05-11T14:56:52.529Z,5.70
2019-05-11T14:59:23.829Z,6.77
2019-05-11T15:01:55.158Z,6.67
2019-05-11T15:04:28.580Z,7.33
2019-05-11T15:06:59.478Z,7.07
2019-05-11T15:09:30.751Z,7.27
2019-05-11T15:12:02.028Z,7.10
2019-05-11T15:14:33.335Z,6.97
2019-05-11T15:17:04.620Z,6.47
2019-05-11T15:19:38.157Z,6.47
2019-05-11T15:22:08.881Z,11.30
2019-05-11T15:24:40.189Z,8.57
2019-05-11T15:27:11.502Z,5.83
2019-05-11T15:29:42.924Z,8.87
2019-05-11T15:32:14.323Z,6.30
2019-05-11T15:34:45.917Z,7.37
2019-05-11T15:37:17.797Z,6.33
2019-05-11T15:39:49.225Z,7.40
2019-05-11T15:42:20.496Z,7.30
2019-05-11T15:44:51.748Z,7.07
2019-05-11T15:47:23.896Z,6.00
2019-05-11T15:49:57.767Z,5.67
2019-05-11T15:52:28.345Z,9.70
2019-05-11T15:54:59.687Z,6.60
2019-05-11T15:57:30.974Z,5.83
2019-05-11T16:00:02.230Z,6.00
2019-05-11T16:02:33.616Z,4.77
2019-05-11T16:05:05.830Z,5.73
2019-05-11T16:07:38.380Z,9.10
2019-05-11T16:10:10.537Z,7.43
2019-05-11T16:12:41.826Z,6.67
2019-05-11T16:15:14.616Z,7.97
2019-05-11T16:17:48.424Z,8.53
2019-05-11T16:20:19.243Z,5.67
2019-05-11T16:22:50.606Z,6.17
2019-05-11T16:25:21.908Z,7.43
2019-05-11T16:27:53.165Z,7.33
2019-05-11T16:30:24.473Z,6.50
2019-05-11T16:32:58.148Z,7.97
2019-05-11T16:35:29.829Z,7.83
2019-05-11T16:38:01.152Z,8.03
2019-05-11T16:40:32.525Z,10.17
2019-05-11T16:43:04.101Z,6.53
2019-05-11T16:45:35.825Z,7.00
2019-05-11T16:48:08.019Z,5.53
2019-05-11T16:50:39.633Z,4.60
2019-05-11T16:53:10.905Z,5.07
2019-05-11T16:55:42.195Z,4.93
2019-05-11T16:58:13.481Z,6.23
2019-05-11T17:00:44.792Z,5.80
2019-05-11T17:03:16.082Z,6.97
2019-05-11T17:05:48.502Z,4.03
2019-05-11T17:08:19.914Z,4.20
2019-05-11T17:10:59.156Z,3.47
2019-05-11T17:13:30.790Z,2.30
2019-05-11T17:16:02.114Z,4.10
2019-05-11T17:18:33.448Z,3.60
2019-05-11T17:21:04.735Z,4.77
2019-05-11T17:23:38.224Z,4.23
2019-05-11T17:26:09.035Z,3.47
2019-05-11T17:28:40.337Z,3.43
2019-05-11T17:31:18.563Z,3.30
2019-05-11T17:33:48.873Z,3.33
2019-05-11T17:36:20.123Z,4.43
2019-05-11T17:38:51.888Z,5.63
2019-05-11T17:41:23.195Z,5.20
2019-05-11T17:43:54.479Z,3.83
2019-05-11T17:46:27.856Z,5.20
2019-05-11T17:48:58.684Z,3.33
2019-05-11T17:51:29.983Z,5.10
2019-05-11T17:54:01.243Z,4.03
2019-05-11T17:56:32.502Z,3.63
2019-05-11T17:59:03.791Z,2.73
2019-05-11T18:01:35.041Z,4.50
2019-05-11T18:04:07.915Z,3.83
2019-05-11T18:06:39.501Z,5.33
2019-05-11T18:09:10.763Z,3.60
2019-05-11T18:11:42.045Z,2.33
2019-05-11T18:14:13.295Z,2.87
2019-05-11T18:16:44.535Z,3.00
2019-05-11T18:19:15.865Z,3.60
2019-05-11T18:21:48.747Z,2.40
2019-05-11T18:24:20.070Z,4.47
2019-05-11T18:26:51.382Z,4.40
2019-05-11T18:29:58.034Z,4.80
2019-05-11T18:32:32.748Z,2.87
2019-05-11T18:35:04.105Z,2.33
2019-05-11T18:37:35.393Z,2.53
2019-05-11T18:40:07.606Z,4.23
2019-05-11T18:42:38.922Z,3.00
2019-05-11T18:45:10.607Z,4.33
2019-05-11T18:47:41.901Z,2.07
2019-05-11T18:50:13.559Z,4.27
2019-05-11T18:52:44.834Z,2.30
2019-05-11T18:55:16.128Z,4.00
2019-05-11T18:57:49.043Z,3.67
2019-05-11T19:00:21.544Z,2.90
2019-05-11T19:02:52.807Z,2.90
2019-05-11T19:05:24.080Z,4.93
2019-05-11T19:07:55.352Z,3.70
2019-05-11T19:10:27.747Z,3.17
2019-05-11T19:12:59.202Z,5.53
2019-05-11T19:15:31.044Z,4.77
2019-05-11T19:18:02.342Z,3.87
2019-05-11T19:20:45.354Z,2.83
2019-05-11T19:23:08.330Z,4.50
2019-05-11T19:25:39.694Z,4.00
2019-05-11T19:28:10.928Z,4.83
2019-05-11T19:30:42.243Z,5.40
2019-05-11T19:33:13.551Z,3.90
2019-05-11T19:35:44.840Z,3.80
2019-05-11T19:38:16.133Z,2.47
2019-05-11T19:40:48.444Z,3.47
2019-05-11T19:43:19.815Z,5.10
2019-05-11T19:45:51.143Z,3.00
2019-05-11T19:48:22.498Z,7.07
2019-05-11T19:51:06.574Z,3.40
2019-05-11T19:53:28.051Z,5.63
2019-05-11T19:55:59.555Z,6.17
2019-05-11T19:58:30.881Z,4.00
2019-05-11T20:01:02.125Z,4.00
2019-05-11T20:03:33.395Z,4.23
2019-05-11T20:06:04.676Z,6.70
2019-05-11T20:08:35.960Z,3.83
2019-05-11T20:11:08.249Z,3.17
2019-05-11T20:13:39.672Z,4.50
2019-05-11T20:16:10.944Z,3.80
2019-05-11T20:18:42.275Z,4.00
2019-05-11T20:21:19.292Z,3.03
2019-05-11T20:23:48.394Z,3.53
2019-05-11T20:26:19.542Z,4.50
2019-05-11T20:28:50.857Z,6.07
2019-05-11T20:31:22.182Z,5.17
2019-05-11T20:33:53.467Z,2.43
2019-05-11T20:36:24.737Z,3.70
2019-05-11T20:38:56.470Z,3.30
2019-05-11T20:41:28.063Z,5.03
2019-05-11T20:43:59.936Z,3.73
2019-05-11T20:46:31.287Z,2.47
2019-05-11T20:49:02.989Z,2.47
2019-05-11T20:51:37.220Z,3.00
2019-05-11T20:54:08.822Z,2.57
2019-05-11T20:56:40.560Z,5.33
2019-05-11T20:59:12.566Z,6.80
2019-05-11T21:01:44.168Z,2.63
2019-05-11T21:04:15.518Z,3.97
2019-05-11T21:06:47.536Z,2.33
2019-05-11T21:09:19.034Z,7.90
2019-05-11T21:11:50.811Z,4.63
2019-05-11T21:14:22.104Z,5.37
2019-05-11T21:16:53.492Z,3.77
2019-05-11T21:19:24.782Z,3.27
2019-05-11T21:21:58.756Z,2.97
2019-05-11T21:24:28.988Z,3.07
2019-05-11T21:27:00.270Z,5.13
2019-05-11T21:29:31.542Z,6.27
2019-05-11T21:32:02.770Z,3.10
2019-05-11T21:34:34.067Z,2.87
2019-05-11T21:37:07.711Z,6.93
2019-05-11T21:39:38.295Z,3.63
2019-05-11T21:42:09.548Z,4.23
2019-05-11T21:44:40.804Z,4.13
2019-05-11T21:47:12.123Z,2.90
2019-05-11T21:49:43.377Z,2.77
2019-05-11T21:52:14.680Z,4.43
2019-05-11T21:54:46.017Z,3.20
2019-05-11T21:57:18.587Z,5.40
2019-05-11T21:59:49.991Z,3.90
2019-05-11T22:02:21.354Z,5.53
2019-05-11T22:04:52.625Z,2.00
2019-05-11T22:07:23.886Z,3.10
2019-05-11T22:09:55.196Z,5.80
2019-05-11T22:12:27.956Z,1.93
2019-05-11T22:14:59.338Z,3.20
2019-05-11T22:17:30.827Z,4.67
2019-05-11T22:20:02.257Z,3.90
2019-05-11T22:22:33.514Z,3.17
2019-05-11T22:25:04.911Z,4.97
2019-05-11T22:27:38.408Z,4.77
2019-05-11T22:30:10.330Z,3.83
2019-05-11T22:32:41.603Z,4.90
2019-05-11T22:35:13.716Z,3.27
2019-05-11T22:37:45.054Z,4.70
2019-05-11T22:40:16.478Z,2.83
2019-05-11T22:42:47.729Z,4.37
2019-05-11T22:45:19.128Z,4.07
2019-05-11T22:47:50.472Z,4.77
2019-05-11T22:50:21.778Z,3.53
2019-05-11T22:52:53.078Z,4.03
2019-05-11T22:55:24.444Z,2.33
2019-05-11T22:57:57.957Z,3.57
2019-05-11T23:00:43.945Z,2.13
2019-05-11T23:03:15.328Z,3.13
2019-05-11T23:05:47.705Z,5.33
2019-05-11T23:08:19.023Z,2.97
2019-05-11T23:10:50.311Z,2.77
2019-05-11T23:13:21.590Z,5.03
2019-05-11T23:15:52.833Z,3.63
2019-05-11T23:18:24.089Z,3.47
2019-05-11T23:20:55.353Z,2.70
2019-05-11T23:23:28.311Z,3.00
2019-05-11T23:25:59.742Z,4.07
2019-05-11T23:28:31.030Z,3.50
2019-05-11T23:31:02.270Z,2.27
2019-05-11T23:33:33.548Z,5.60
2019-05-11T23:36:04.829Z,4.10
2019-05-11T23:38:38.543Z,2.87
2019-05-11T23:41:22.591Z,3.27
2019-05-11T23:43:42.091Z,2.33
2019-05-11T23:46:13.341Z,3.87
2019-05-11T23:48:44.620Z,3.97
2019-05-11T23:51:17.960Z,4.47
2019-05-11T23:53:48.862Z,2.80
2019-05-11T23:56:20.143Z,5.70
2019-05-11T23:58:51.407Z,2.80
